Time;durP1;ratioP1;P1;durP2;ratioP2;P2;SDS_P1;SDS_P2;PMS_P1;PMS_P2;Temp;Humidity;BMP_temperature;BMP_pressure;BME280_temperature;BME280_humidity;BME280_pressure;Samples;Min_cycle;Max_cycle;Signal;HPM_P1;HPM_P2
2022/02/08 00:00:42;;;;;;;10.63;5.60;;;;;;;2.42;78.63;99388.17;126319;1099;104207;-79
2022/02/08 00:03:17;;;;;;;9.93;5.27;;;;;;;2.43;77.85;99395.11;126306;1099;104165;-79
2022/02/08 00:06:00;;;;;;;10.83;5.50;;;;;;;2.46;78.34;99405.63;126316;1099;104322;-78
2022/02/08 00:08:32;;;;;;;7.60;5.17;;;;;;;2.47;78.53;99400.52;126248;1099;104274;-79
2022/02/08 00:11:05;;;;;;;9.37;5.43;;;;;;;2.44;77.61;99405.55;126300;1099;104213;-79
2022/02/08 00:13:38;;;;;;;10.90;5.53;;;;;;;2.46;77.64;99405.63;126273;1097;104175;-79
2022/02/08 00:16:09;;;;;;;10.13;5.40;;;;;;;2.45;78.27;99415.11;126326;1099;104178;-79
2022/02/08 00:18:41;;;;;;;9.53;5.30;;;;;;;2.47;78.58;99410.00;126323;1099;104634;-79
2022/02/08 00:21:13;;;;;;;11.03;5.03;;;;;;;2.46;79.24;99416.89;126285;1099;104291;-80
2022/02/08 00:23:44;;;;;;;10.57;5.50;;;;;;;2.45;78.36;99404.75;126309;1099;104177;-79
2022/02/08 00:26:19;;;;;;;9.40;5.43;;;;;;;2.48;78.79;99412.67;126288;1098;104246;-79
2022/02/08 00:28:51;;;;;;;14.00;6.00;;;;;;;2.47;78.97;99412.59;126326;1099;104322;-79
2022/02/08 00:31:24;;;;;;;11.17;5.60;;;;;;;2.47;78.56;99425.54;126362;1099;104300;-79
2022/02/08 00:33:55;;;;;;;12.37;6.10;;;;;;;2.47;78.59;99423.83;126273;1099;104184;-79
2022/02/08 00:36:27;;;;;;;12.27;5.53;;;;;;;2.46;78.81;99422.07;126265;1099;104249;-79
2022/02/08 00:38:59;;;;;;;11.17;5.60;;;;;;;2.48;78.32;99428.20;126316;1099;104373;-79
2022/02/08 00:41:33;;;;;;;10.95;5.42;;;;;;;2.48;78.82;99440.28;126289;1099;104149;-79
2022/02/08 00:44:10;;;;;;;11.53;5.93;;;;;;;2.48;78.84;99435.98;126254;1099;104146;-79
2022/02/08 00:46:48;;;;;;;12.30;5.83;;;;;;;2.49;79.40;99418.72;126310;1099;104158;-78
2022/02/08 00:49:27;;;;;;;12.03;5.80;;;;;;;2.47;79.13;99431.59;126326;1099;104249;-79
2022/02/08 00:52:06;;;;;;;12.00;5.70;;;;;;;2.48;79.04;99433.39;126256;1099;104249;-79
2022/02/08 00:54:37;;;;;;;10.93;5.83;;;;;;;2.46;79.48;99445.37;126284;1099;104197;-79
2022/02/08 00:57:10;;;;;;;12.70;5.80;;;;;;;2.46;80.14;99453.14;126279;1099;104219;-79
2022/02/08 00:59:42;;;;;;;12.70;6.23;;;;;;;2.44;79.03;99456.45;126266;1099;104226;-79
2022/02/08 01:02:13;;;;;;;12.77;6.00;;;;;;;2.42;79.42;99451.20;126323;1099;104143;-79
2022/02/08 01:04:52;;;;;;;12.00;6.25;;;;;;;2.42;79.45;99461.55;126323;1099;104249;-79
2022/02/08 01:07:24;;;;;;;13.50;6.47;;;;;;;2.40;79.20;99460.59;126343;1099;104670;-79
2022/02/08 01:09:58;;;;;;;11.33;6.17;;;;;;;2.40;80.20;99450.23;126289;1099;104143;-79
2022/02/08 01:12:33;;;;;;;13.23;5.97;;;;;;;2.38;79.82;99454.43;126252;1099;104344;-79
2022/02/08 01:15:07;;;;;;;12.70;6.10;;;;;;;2.38;79.52;99459.61;126232;1099;104217;-79
2022/02/08 01:17:38;;;;;;;11.28;5.75;;;;;;;2.38;79.00;99457.02;126360;1099;104251;-79
2022/02/08 01:20:15;;;;;;;11.27;5.90;;;;;;;2.38;79.30;99469.96;126366;1099;104145;-79
2022/02/08 01:22:49;;;;;;;12.87;6.20;;;;;;;2.39;80.76;99476.94;126287;1099;104396;-80
2022/02/08 01:25:29;;;;;;;8.73;4.83;;;;;;;2.38;80.82;99484.63;126269;1099;104172;-80
2022/02/08 01:28:15;;;;;;;11.40;5.63;;;;;;;2.35;81.04;99500.88;126349;1099;104157;-79
2022/02/08 01:31:06;;;;;;;10.80;5.70;;;;;;;2.36;80.36;99486.25;126334;1099;104124;-79
2022/02/08 01:34:09;;;;;;;12.93;6.20;;;;;;;2.36;80.49;99497.48;126344;1099;104219;-82
2022/02/08 01:37:03;;;;;;;13.00;6.43;;;;;;;2.33;80.57;99500.80;126247;1099;104149;-79
2022/02/08 01:39:45;;;;;;;13.63;6.50;;;;;;;2.35;79.96;99498.28;126277;1099;104152;-80
2022/02/08 01:42:36;;;;;;;11.60;5.80;;;;;;;2.36;80.77;99507.84;126278;1099;104195;-80
2022/02/08 01:45:34;;;;;;;12.73;6.30;;;;;;;2.35;79.97;99506.05;126226;1099;104147;-80
2022/02/08 01:48:10;;;;;;;12.80;6.40;;;;;;;2.36;80.52;99509.55;126312;1099;104213;-79
2022/02/08 01:50:43;;;;;;;11.47;5.70;;;;;;;2.39;80.65;99508.00;126315;1099;104153;-79
2022/02/08 01:53:21;;;;;;;13.80;6.53;;;;;;;2.38;80.86;99520.87;126270;1099;104896;-79
2022/02/08 01:55:54;;;;;;;11.83;6.27;;;;;;;2.38;81.28;99528.63;126262;1099;104274;-79
2022/02/08 01:58:29;;;;;;;11.37;5.60;;;;;;;2.37;80.98;99525.16;126265;1099;104322;-79
2022/02/08 02:01:22;;;;;;;13.37;6.60;;;;;;;2.36;80.52;99519.91;126377;1099;104169;-80
2022/02/08 02:03:53;;;;;;;12.40;5.77;;;;;;;2.37;80.97;99525.16;126304;1099;104188;-78
2022/02/08 02:06:25;;;;;;;9.83;5.73;;;;;;;2.35;80.60;99526.77;126291;1099;104189;-79
2022/02/08 02:08:57;;;;;;;12.93;6.27;;;;;;;2.35;80.48;99544.88;126341;1099;104198;-79
2022/02/08 02:11:29;;;;;;;12.63;6.10;;;;;;;2.34;80.72;99550.89;126305;1099;104261;-80
2022/02/08 02:14:02;;;;;;;10.50;5.80;;;;;;;2.33;80.99;99554.28;126302;1099;104153;-78
2022/02/08 02:16:45;;;;;;;12.50;6.40;;;;;;;2.31;80.16;99550.73;126228;1099;104152;-79
2022/02/08 02:19:18;;;;;;;11.53;5.90;;;;;;;2.31;80.02;99555.91;126254;1099;104300;-79
2022/02/08 02:21:50;;;;;;;11.67;5.70;;;;;;;2.32;80.53;99560.26;126370;1099;104156;-79
2022/02/08 02:24:22;;;;;;;12.73;5.87;;;;;;;2.31;81.59;99561.97;126260;1099;104146;-80
2022/02/08 02:26:56;;;;;;;12.47;5.93;;;;;;;2.31;80.38;99567.14;126261;1099;104188;-79
2022/02/08 02:29:31;;;;;;;10.48;5.50;;;;;;;2.32;81.22;99562.84;126357;1099;104194;-79
2022/02/08 02:35:43;;;;;;;12.40;5.20;;;;;;;2.30;81.55;99585.19;126221;1099;104207;-78
2022/02/08 02:38:15;;;;;;;11.13;5.53;;;;;;;2.28;81.26;99582.52;125469;1099;104399;-79
2022/02/08 02:40:47;;;;;;;10.50;4.90;;;;;;;2.25;81.81;99586.64;125284;1099;104261;-79
2022/02/08 02:43:23;;;;;;;9.47;4.97;;;;;;;2.22;81.78;99586.48;125308;1099;104290;-78
2022/02/08 02:45:57;;;;;;;8.33;4.60;;;;;;;2.21;81.18;99576.92;125285;1099;104174;-78
2022/02/08 02:48:30;;;;;;;7.90;4.70;;;;;;;2.18;81.76;99580.22;125894;1099;104252;-79
2022/02/08 02:51:02;;;;;;;9.57;4.57;;;;;;;2.15;82.24;99593.91;125981;1099;104163;-79
2022/02/08 02:53:43;;;;;;;8.83;4.97;;;;;;;2.13;81.75;99592.91;126218;1099;104338;-79
2022/02/08 02:56:19;;;;;;;9.83;4.57;;;;;;;2.11;82.37;99597.13;126231;1098;104335;-79
2022/02/08 02:58:52;;;;;;;9.17;4.40;;;;;;;2.10;82.09;99597.95;125251;1102;104320;-79
2022/02/08 03:01:30;;;;;;;8.60;4.50;;;;;;;2.07;83.23;99597.78;125280;1102;104300;-79
2022/02/08 03:04:25;;;;;;;6.43;4.10;;;;;;;2.06;83.35;99589.94;125277;1102;104269;-79
2022/02/08 03:18:35;;;;;;;5.97;3.23;;;;;;;2.07;82.92;99604.63;125256;1102;104223;-79
2022/02/08 03:21:08;;;;;;;4.77;3.30;;;;;;;2.06;83.07;99615.81;125304;1102;104152;-79
2022/02/08 03:23:41;;;;;;;4.60;2.83;;;;;;;2.05;82.42;99625.25;125305;1102;104422;-79
2022/02/08 03:26:13;;;;;;;4.37;2.80;;;;;;;2.03;82.65;99629.46;125316;1102;104364;-79
2022/02/08 03:28:53;;;;;;;4.23;2.77;;;;;;;2.01;83.00;99654.38;125291;1102;104335;-79
2022/02/08 03:31:29;;;;;;;4.50;2.67;;;;;;;2.02;83.35;99652.66;126042;1099;104246;-79
2022/02/08 03:34:00;;;;;;;4.00;2.60;;;;;;;2.00;82.94;99652.58;126054;1099;104666;-78
2022/02/08 03:36:34;;;;;;;3.57;2.50;;;;;;;1.98;83.50;99661.97;126244;1099;104274;-79
2022/02/08 03:39:14;;;;;;;4.10;2.60;;;;;;;1.94;82.54;99657.41;126239;1099;104157;-79
2022/02/08 03:41:51;;;;;;;3.43;2.50;;;;;;;1.92;83.49;99672.84;126334;1099;104207;-79
2022/02/08 03:44:30;;;;;;;;;;;;;;;1.89;84.86;99685.61;126381;1099;104178;-79
2022/02/08 03:47:06;;;;;;;3.10;2.60;;;;;;;1.88;83.75;99677.76;126328;1099;104185;-79
2022/02/08 03:49:40;;;;;;;4.40;2.70;;;;;;;1.88;84.09;99695.87;126272;1099;104155;-79
2022/02/08 03:52:11;;;;;;;3.17;2.70;;;;;;;1.87;83.37;99707.92;126250;1099;104162;-79
2022/02/08 03:54:47;;;;;;;3.93;2.60;;;;;;;1.89;84.37;99706.30;126371;1096;104271;-78
2022/02/08 03:57:23;;;;;;;5.07;2.83;;;;;;;1.89;84.33;99711.48;126332;1099;104182;-79
2022/02/08 03:59:55;;;;;;;4.33;3.10;;;;;;;1.89;84.19;99723.53;126305;1099;104188;-78
2022/02/08 04:02:39;;;;;;;5.57;3.10;;;;;;;1.90;83.34;99739.15;126232;1099;104155;-79
2022/02/08 04:05:18;;;;;;;4.15;2.85;;;;;;;1.91;83.89;99732.27;126137;1099;104255;-79
2022/02/08 04:07:56;;;;;;;3.50;2.63;;;;;;;1.93;83.94;99748.77;126230;1099;104155;-78
2022/02/08 04:10:31;;;;;;;4.10;2.73;;;;;;;1.94;83.72;99750.55;126277;1099;104153;-78
2022/02/08 04:13:10;;;;;;;3.20;2.50;;;;;;;1.94;84.09;99766.97;126371;1099;104146;-77
2022/02/08 04:16:01;;;;;;;3.10;2.60;;;;;;;1.94;83.81;99774.72;126348;1099;104146;-78
2022/02/08 04:18:49;;;;;;;3.30;2.73;;;;;;;1.96;84.56;99783.49;126306;1099;104342;-78
2022/02/08 04:33:00;;;;;;;4.10;2.37;;;;;;;1.83;84.27;99844.77;126350;1099;104142;-78
2022/02/08 04:36:00;;;;;;;3.13;2.30;;;;;;;1.81;84.33;99865.38;126353;1099;104166;-78
2022/02/08 04:38:43;;;;;;;2.67;2.30;;;;;;;1.76;84.99;99870.27;126151;1099;104175;-78
2022/02/08 04:41:18;;;;;;;3.17;1.90;;;;;;;1.72;85.47;99888.09;126058;1099;104200;-76
2022/02/08 04:43:57;;;;;;;3.70;2.10;;;;;;;1.68;85.25;99879.23;126065;1099;104306;-76
2022/02/08 04:46:41;;;;;;;3.40;2.20;;;;;;;1.64;85.22;99877.28;126015;1099;104223;-76
2022/02/08 04:49:13;;;;;;;3.10;2.15;;;;;;;1.62;84.59;99884.03;126082;1099;104188;-76
2022/02/08 04:51:48;;;;;;;2.50;1.80;;;;;;;1.60;84.78;99896.86;126151;1099;104140;-77
2022/02/08 04:54:26;;;;;;;3.10;1.73;;;;;;;1.58;85.28;99906.23;126369;1099;104146;-78
2022/02/08 04:57:08;;;;;;;2.23;1.90;;;;;;;1.53;84.06;99910.23;126285;1099;104271;-78
2022/02/08 05:00:05;;;;;;;3.27;1.97;;;;;;;1.48;84.70;99915.91;126142;1099;104274;-78
2022/02/08 05:42:31;;;;;;;8.67;3.30;;;;;;;1.09;86.90;100045.27;125098;1099;104203;-75
2022/02/08 05:45:10;;;;;;;8.50;3.20;;;;;;;1.07;85.69;100050.34;126078;1099;104856;-76
2022/02/08 05:47:43;;;;;;;6.47;2.90;;;;;;;1.08;85.82;100053.84;126341;1099;104227;-77
2022/02/08 05:50:26;;;;;;;4.40;3.20;;;;;;;1.10;86.20;100044.48;126378;1099;104550;-77
2022/02/08 05:53:06;;;;;;;5.20;2.93;;;;;;;1.11;86.21;100046.29;126142;1098;104229;-78
2022/02/08 05:55:37;;;;;;;6.20;3.37;;;;;;;1.10;86.58;100059.99;125992;1099;104200;-75
2022/02/08 05:58:09;;;;;;;7.37;3.47;;;;;;;1.14;85.86;100074.92;126013;1099;104149;-75
2022/02/08 06:00:40;;;;;;;5.30;3.10;;;;;;;1.18;86.25;100094.98;126162;1099;104309;-76
2022/02/08 06:03:19;;;;;;;7.33;3.60;;;;;;;1.21;86.09;100099.47;125995;1099;104654;-75
2022/02/08 06:05:58;;;;;;;7.40;3.70;;;;;;;1.26;86.73;100103.25;126114;1099;104175;-75
2022/02/08 06:08:29;;;;;;;7.83;4.33;;;;;;;1.26;86.15;100111.00;126210;1099;104332;-78
2022/02/08 06:11:04;;;;;;;8.50;3.43;;;;;;;1.29;86.72;100115.49;126252;1099;104306;-77
2022/02/08 06:13:38;;;;;;;7.13;4.03;;;;;;;1.32;86.29;100126.92;126234;1098;104207;-77
2022/02/08 06:16:16;;;;;;;10.43;4.37;;;;;;;1.37;86.62;100122.97;126315;1098;104624;-78
2022/02/08 06:18:47;;;;;;;10.03;4.17;;;;;;;1.36;86.45;100140.97;126151;1099;104274;-77
2022/02/08 06:21:19;;;;;;;10.60;4.53;;;;;;;1.36;85.92;100139.27;126078;1099;104150;-77
2022/02/08 06:23:50;;;;;;;9.70;4.30;;;;;;;1.40;86.04;100132.60;126048;1099;104211;-77
2022/02/08 06:26:23;;;;;;;10.53;4.20;;;;;;;1.40;85.93;100133.52;126096;1099;104153;-77
2022/02/08 06:29:05;;;;;;;11.40;4.83;;;;;;;1.44;86.74;100140.66;126083;1099;104146;-77
2022/02/08 06:31:37;;;;;;;12.53;5.03;;;;;;;1.48;86.18;100140.87;126042;1099;104166;-77
2022/02/08 06:34:08;;;;;;;8.87;4.50;;;;;;;1.52;86.59;100142.88;125995;1099;104258;-78
2022/02/08 06:36:42;;;;;;;8.50;4.00;;;;;;;1.54;86.57;100139.61;126057;1099;104576;-77
2022/02/08 06:39:18;;;;;;;11.73;5.03;;;;;;;1.55;86.69;100141.38;125856;1099;104291;-78
2022/02/08 06:41:50;;;;;;;11.43;5.13;;;;;;;1.59;86.93;100152.80;125849;1099;104271;-77
2022/02/08 06:44:21;;;;;;;9.33;4.80;;;;;;;1.60;86.47;100159.78;125870;1099;103088;-78
2022/02/08 06:46:53;;;;;;;11.67;5.30;;;;;;;1.63;86.79;100165.16;125799;1099;104463;-79
2022/02/08 06:49:25;;;;;;;14.33;5.80;;;;;;;1.66;86.01;100173.11;125689;1099;104315;-78
2022/02/08 06:51:57;;;;;;;12.63;5.40;;;;;;;1.71;86.63;100178.59;125831;1099;104328;-79
2022/02/08 06:54:28;;;;;;;12.17;5.37;;;;;;;1.76;86.50;100170.35;125632;1099;104181;-77
2022/02/08 06:57:00;;;;;;;11.63;4.90;;;;;;;1.84;86.53;100177.70;125759;1099;104367;-77
2022/02/08 06:59:37;;;;;;;11.07;4.83;;;;;;;1.87;86.82;100188.25;125001;1099;104730;-77
2022/02/08 07:02:09;;;;;;;13.97;6.20;;;;;;;1.90;86.05;100203.97;125331;1099;104342;-76
2022/02/08 07:04:42;;;;;;;12.63;6.10;;;;;;;1.93;85.64;100199.00;125656;1099;104213;-80
2022/02/08 07:07:16;;;;;;;11.55;4.95;;;;;;;1.96;86.72;100214.72;125608;1099;104463;-77
2022/02/08 07:09:48;;;;;;;9.80;4.93;;;;;;;1.95;86.48;100206.08;125586;1099;105282;-78
2022/02/08 07:12:20;;;;;;;12.37;5.00;;;;;;;1.97;86.21;100216.53;125744;1099;104395;-78
2022/02/08 07:14:53;;;;;;;11.90;5.80;;;;;;;1.98;85.77;100201.10;125778;1099;104201;-80
2022/02/08 07:17:27;;;;;;;11.00;4.90;;;;;;;2.02;86.15;100220.30;125729;1099;104162;-78
2022/02/08 07:20:01;;;;;;;12.55;5.20;;;;;;;2.02;85.85;100214.23;125687;1099;104219;-78
2022/02/08 07:22:33;;;;;;;14.07;5.37;;;;;;;2.03;86.50;100229.88;125565;1099;104153;-77
2022/02/08 07:25:10;;;;;;;11.77;5.43;;;;;;;2.06;86.14;100221.42;125705;1099;104179;-78
2022/02/08 07:27:43;;;;;;;10.97;5.83;;;;;;;2.06;85.70;100237.84;126423;1099;104201;-78
2022/02/08 07:30:18;;;;;;;13.23;6.17;;;;;;;2.08;85.66;100232.76;125957;1099;104268;-78
2022/02/08 07:32:53;;;;;;;14.33;6.30;;;;;;;2.12;85.90;100243.41;125849;1098;104181;-77
2022/02/08 07:35:33;;;;;;;14.27;5.77;;;;;;;2.12;86.17;100243.41;125783;1099;104351;-77
2022/02/08 07:38:10;;;;;;;18.63;5.93;;;;;;;2.15;86.49;100238.44;125885;1099;104858;-76
2022/02/08 07:41:35;;;;;;;12.03;5.53;;;;;;;2.16;86.49;100258.33;125864;1099;104284;-76
2022/02/08 07:43:36;;;;;;;15.73;5.77;;;;;;;2.17;86.32;100251.48;125875;1099;104638;-76
2022/02/08 07:46:16;;;;;;;16.43;6.27;;;;;;;2.24;86.38;100248.47;125870;1098;104210;-76
2022/02/08 07:48:49;;;;;;;14.43;6.47;;;;;;;2.31;85.69;100244.61;126013;1099;104217;-78
2022/02/08 07:51:24;;;;;;;18.45;7.20;;;;;;;2.36;85.67;100248.38;125666;1098;104363;-77
2022/02/08 07:53:57;;;;;;;14.93;6.40;;;;;;;2.41;85.98;100256.45;125839;1099;104175;-77
2022/02/08 07:56:29;;;;;;;12.47;5.80;;;;;;;2.44;85.74;100274.77;125833;1099;104220;-77
2022/02/08 07:59:02;;;;;;;17.43;6.57;;;;;;;2.44;85.82;100270.48;125724;1099;104300;-77
2022/02/08 08:01:34;;;;;;;15.03;6.67;;;;;;;2.48;85.85;100263.83;125962;1099;104278;-77
2022/02/08 08:04:07;;;;;;;15.23;6.70;;;;;;;2.50;85.51;100269.98;125682;1099;104332;-76
2022/02/08 08:06:43;;;;;;;19.33;7.20;;;;;;;2.51;85.78;100257.14;125866;1098;104217;-77
2022/02/08 08:09:19;;;;;;;15.97;6.07;;;;;;;2.53;85.06;100274.48;125894;1097;104243;-77
2022/02/08 08:11:52;;;;;;;12.13;5.73;;;;;;;2.54;85.40;100278.84;125969;1099;104157;-79
2022/02/08 08:14:27;;;;;;;13.23;6.07;;;;;;;2.52;84.90;100299.46;125804;1099;104204;-77
2022/02/08 08:17:04;;;;;;;13.80;6.10;;;;;;;2.56;84.83;100280.74;125931;1099;104169;-78
2022/02/08 08:19:38;;;;;;;11.70;5.57;;;;;;;2.60;84.87;100307.73;126060;1099;104672;-78
2022/02/08 08:22:11;;;;;;;14.53;5.63;;;;;;;2.57;84.55;100311.05;125984;1099;104149;-78
2022/02/08 08:24:44;;;;;;;14.75;6.28;;;;;;;2.62;84.21;100298.39;125859;1099;104224;-79
2022/02/08 08:27:18;;;;;;;16.13;6.43;;;;;;;2.66;84.34;100321.96;125990;1099;104165;-77
2022/02/08 08:29:51;;;;;;;14.07;5.90;;;;;;;2.72;84.27;100303.34;125765;1099;104245;-78
2022/02/08 08:32:23;;;;;;;16.87;6.03;;;;;;;2.81;84.11;100321.17;125670;1099;102344;-78
2022/02/08 08:35:00;;;;;;;15.38;6.12;;;;;;;2.88;84.33;100319.08;125812;1099;104178;-79
2022/02/08 08:37:40;;;;;;;13.60;5.77;;;;;;;2.94;83.52;100339.28;126036;1099;104149;-79
2022/02/08 08:40:23;;;;;;;13.73;5.80;;;;;;;3.00;83.01;100337.08;126066;1098;104149;-80
2022/02/08 08:43:23;;;;;;;11.67;5.47;;;;;;;3.02;82.58;100338.09;125963;1099;104166;-80
2022/02/08 08:49:00;;;;;;;15.30;5.03;;;;;;;3.10;81.65;100354.13;125846;1099;104175;-79
2022/02/08 08:51:41;;;;;;;11.60;5.83;;;;;;;3.26;81.06;100355.06;126017;1098;104191;-79
2022/02/08 08:54:14;;;;;;;12.07;4.40;;;;;;;3.31;79.34;100367.53;125964;1099;104181;-79
2022/02/08 08:56:51;;;;;;;12.57;4.73;;;;;;;3.33;79.74;100367.62;125753;1099;104152;-79
2022/02/08 08:59:27;;;;;;;13.43;4.93;;;;;;;3.39;79.88;100375.80;125803;1099;104179;-80
2022/02/08 09:02:03;;;;;;;12.37;4.40;;;;;;;3.44;79.22;100366.59;125968;1099;104632;-80
2022/02/08 09:04:44;;;;;;;11.57;4.00;;;;;;;3.42;77.29;100363.02;125288;1099;104184;-80
2022/02/08 09:07:18;;;;;;;12.83;4.20;;;;;;;3.45;78.22;100375.30;125909;1099;104201;-80
2022/02/08 09:09:58;;;;;;;13.70;4.30;;;;;;;3.45;76.58;100381.36;125965;1099;104222;-80
2022/02/08 09:12:54;;;;;;;10.43;4.10;;;;;;;3.44;76.47;100374.38;125912;1099;104178;-80
2022/02/08 09:15:46;;;;;;;7.60;3.70;;;;;;;3.47;76.93;100378.86;125805;1099;104275;-79
2022/02/08 09:24:51;;;;;;;6.53;3.10;;;;;;;3.55;74.59;100398.39;125136;1099;104376;-78
2022/02/08 09:30:31;;;;;;;10.93;3.30;;;;;;;3.54;74.50;100394.91;125855;1099;104210;-79
2022/02/08 09:33:06;;;;;;;6.55;2.95;;;;;;;3.54;72.36;100399.21;125805;1099;104273;-78
2022/02/08 09:35:52;;;;;;;5.80;2.93;;;;;;;3.58;73.17;100396.91;125816;1099;104296;-78
2022/02/08 09:38:29;;;;;;;8.73;3.30;;;;;;;3.56;73.81;100402.78;125801;1099;104226;-79
2022/02/08 09:41:08;;;;;;;6.33;3.10;;;;;;;3.54;70.96;100417.38;125733;1099;104316;-78
2022/02/08 09:43:41;;;;;;;7.50;3.30;;;;;;;3.53;72.50;100407.78;125895;1099;104280;-78
2022/02/08 09:46:15;;;;;;;7.33;3.23;;;;;;;3.53;72.02;100407.78;125957;1099;104146;-78
2022/02/08 09:48:53;;;;;;;12.33;3.53;;;;;;;3.55;72.70;100417.47;126091;1099;104275;-78
2022/02/08 09:51:26;;;;;;;8.43;3.10;;;;;;;3.50;69.78;100423.16;125867;1099;104879;-80
2022/02/08 09:54:01;;;;;;;8.90;3.17;;;;;;;3.48;70.81;100404.91;126072;1099;104175;-80
2022/02/08 09:56:34;;;;;;;7.43;2.87;;;;;;;3.50;70.45;100418.86;125855;1099;104213;-79
2022/02/08 09:59:06;;;;;;;6.40;3.30;;;;;;;3.57;71.51;100413.27;125901;1099;104265;-79
2022/02/08 10:01:40;;;;;;;7.53;3.30;;;;;;;3.59;69.16;100416.84;125891;1099;104312;-80
2022/02/08 10:04:19;;;;;;;10.13;3.90;;;;;;;3.64;71.31;100416.23;125834;1099;104253;-77
2022/02/08 10:06:52;;;;;;;8.63;3.50;;;;;;;3.68;70.43;100424.31;125966;1099;104152;-79
2022/02/08 10:09:32;;;;;;;9.13;3.83;;;;;;;3.72;70.66;100422.79;125922;1099;104197;-78
2022/02/08 10:12:05;;;;;;;10.23;4.17;;;;;;;3.78;71.27;100429.25;125934;1099;104214;-78
2022/02/08 10:18:54;;;;;;;12.23;4.40;;;;;;;3.84;71.17;100430.45;125913;1099;104281;-79
2022/02/08 10:23:37;;;;;;;9.90;4.15;;;;;;;3.96;68.77;100459.77;125707;1099;104605;-79
2022/02/08 10:26:23;;;;;;;13.50;4.80;;;;;;;4.01;69.25;100440.16;125727;1099;104426;-76
2022/02/08 10:28:58;;;;;;;12.90;4.47;;;;;;;4.09;69.15;100445.81;125713;1099;104200;-77
2022/02/08 10:37:45;;;;;;;12.58;4.80;;;;;;;4.23;69.87;100455.33;125919;1099;104248;-77
2022/02/08 10:40:23;;;;;;;12.67;4.20;;;;;;;4.23;68.13;100465.72;125737;1099;104267;-77
2022/02/08 10:42:58;;;;;;;13.13;5.00;;;;;;;4.26;69.27;100455.52;125675;1099;104204;-80
2022/02/08 10:45:35;;;;;;;11.90;4.53;;;;;;;4.29;68.60;100460.02;125671;1099;104182;-79
2022/02/08 10:48:11;;;;;;;13.93;5.20;;;;;;;4.34;68.06;100460.29;126016;1099;104743;-78
2022/02/08 10:50:56;;;;;;;16.17;5.87;;;;;;;4.29;67.53;100466.09;125073;1099;104665;-78
2022/02/08 10:53:39;;;;;;;14.27;6.03;;;;;;;4.20;67.33;100478.52;125843;1099;104414;-78
2022/02/08 10:56:13;;;;;;;16.80;6.60;;;;;;;4.19;67.80;100470.64;125744;1099;104377;-78
2022/02/08 10:58:53;;;;;;;13.30;5.50;;;;;;;4.10;65.91;100470.99;125125;1099;104312;-81
2022/02/08 11:01:30;;;;;;;13.63;5.70;;;;;;;4.10;67.66;100489.17;125068;1099;104354;-79
2022/02/08 11:04:16;;;;;;;17.80;5.50;;;;;;;4.01;67.32;100479.11;125646;1099;104178;-82
2022/02/08 11:06:56;;;;;;;14.33;5.63;;;;;;;3.96;68.23;100481.42;125219;1099;104415;-80
2022/02/08 11:09:40;;;;;;;13.03;4.97;;;;;;;3.89;67.85;100483.54;125554;1099;104376;-80
2022/02/08 11:12:35;;;;;;;13.47;4.73;;;;;;;3.81;66.71;100498.63;125589;1099;104240;-80
2022/02/08 11:15:28;;;;;;;12.30;5.03;;;;;;;3.79;67.96;100489.86;125595;1099;104400;-79
2022/02/08 11:18:31;;;;;;;14.73;5.30;;;;;;;3.75;66.81;100480.08;127115;1099;101831;-80
2022/02/08 11:21:20;;;;;;;14.60;5.17;;;;;;;3.73;67.69;100492.96;125797;1102;102248;-81
2022/02/08 11:24:03;;;;;;;16.87;5.93;;;;;;;3.78;67.55;100508.82;125597;1099;104297;-81
2022/02/08 11:26:41;;;;;;;18.67;6.00;;;;;;;3.75;67.25;100499.13;124907;1099;103561;-81
2022/02/08 11:29:24;;;;;;;13.60;4.90;;;;;;;3.81;67.24;100519.40;125113;1099;104508;-82
2022/02/08 11:32:23;;;;;;;13.40;4.73;;;;;;;3.83;66.04;100488.34;125126;1099;103089;-80
2022/02/08 11:44:09;;;;;;;13.53;4.83;;;;;;;4.05;65.97;100503.55;125400;1099;104229;-79
2022/02/08 11:46:56;;;;;;;14.37;5.03;;;;;;;4.14;65.40;100497.25;125685;1099;104258;-81
2022/02/08 11:49:50;;;;;;;14.67;4.93;;;;;;;4.23;66.77;100502.08;125753;1099;104339;-80
2022/02/08 11:55:44;;;;;;;8.67;3.60;;;;;;;4.18;60.92;100520.81;125644;1099;104185;-80
2022/02/08 11:58:29;;;;;;;8.17;3.40;;;;;;;4.16;62.55;100520.72;125330;1099;102745;-79
2022/02/08 12:01:06;;;;;;;;;;;;;;;4.08;58.28;100514.13;125824;1099;110510;-79
2022/02/08 12:09:50;;;;;;;10.93;4.33;;;;;;;4.06;60.89;100507.95;125349;1099;102329;-80
2022/02/08 12:12:48;;;;;;;9.23;4.10;;;;;;;4.06;61.82;100501.05;125892;1099;104188;-79
2022/02/08 12:34:02;;;;;;;16.43;5.63;;;;;;;3.98;60.95;100525.66;125026;1102;104211;-78
2022/02/08 12:49:22;;;;;;;11.93;4.17;;;;;;;3.93;61.38;100548.73;126076;1099;104176;-79
2022/02/08 12:58:10;;;;;;;11.77;4.00;;;;;;;3.91;60.26;100567.59;125742;1099;104156;-80
2022/02/08 13:00:55;;;;;;;11.60;3.50;;;;;;;3.90;59.73;100579.69;125872;1099;104155;-80
2022/02/08 13:19:36;;;;;;;11.60;2.97;;;;;;;3.89;57.82;100596.05;124977;1102;108080;-79
2022/02/08 14:01:59;;;;;;;13.27;4.00;;;;;;;3.75;56.48;100648.79;124932;1102;104220;-80
2022/02/08 14:05:30;;;;;;;11.93;4.10;;;;;;;3.76;57.66;100642.81;125007;1102;105059;-82
2022/02/08 14:08:16;;;;;;;12.30;4.03;;;;;;;3.77;58.84;100642.91;124863;1102;102741;-80
2022/02/08 14:19:37;;;;;;;7.93;3.13;;;;;;;3.53;57.69;100647.37;124880;1102;104176;-79
2022/02/08 14:22:34;;;;;;;11.90;3.17;;;;;;;3.53;58.75;100633.52;124940;1102;104217;-80
2022/02/08 14:25:22;;;;;;;9.63;3.20;;;;;;;3.51;58.14;100641.19;124979;1102;104153;-80
2022/02/08 14:30:51;;;;;;;11.90;4.20;;;;;;;3.45;57.93;100647.69;125022;1102;104294;-80
2022/02/08 14:36:31;;;;;;;11.43;3.57;;;;;;;3.42;59.33;100643.17;124943;1102;104217;-80
2022/02/08 15:13:46;;;;;;;9.70;3.80;;;;;;;3.09;58.98;100688.50;124746;1105;104163;-79
2022/02/08 15:16:28;;;;;;;10.60;3.00;;;;;;;3.02;58.23;100672.52;124950;1105;104271;-82
2022/02/08 15:19:03;;;;;;;5.73;3.33;;;;;;;3.03;58.15;100676.00;124934;1105;104283;-80
2022/02/08 15:21:48;;;;;;;7.83;2.83;;;;;;;3.00;56.79;100680.98;125020;1106;104370;-80
2022/02/08 15:24:25;;;;;;;6.67;2.73;;;;;;;3.00;56.65;100680.98;125022;1105;104181;-81
2022/02/08 15:27:03;;;;;;;10.13;3.13;;;;;;;2.98;57.66;100685.16;124762;1105;104146;-79
2022/02/08 15:29:41;;;;;;;9.43;2.70;;;;;;;2.98;58.00;100695.53;124840;1105;104433;-80
2022/02/08 15:32:20;;;;;;;13.45;3.30;;;;;;;2.96;57.85;100679.88;124839;1105;104290;-79
2022/02/08 15:34:57;;;;;;;8.43;3.07;;;;;;;2.93;57.69;100687.44;124856;1104;104654;-81
2022/02/08 15:37:34;;;;;;;10.85;3.05;;;;;;;2.92;57.82;100700.30;124778;1105;104197;-81
2022/02/08 15:40:15;;;;;;;11.37;3.80;;;;;;;2.91;58.47;100719.22;124776;1105;104149;-80
2022/02/08 15:42:51;;;;;;;11.57;3.73;;;;;;;2.90;57.99;100712.22;124853;1103;104329;-80
2022/02/08 15:45:28;;;;;;;13.73;4.10;;;;;;;2.89;59.12;100708.75;126275;1102;102060;-81
2022/02/08 15:48:09;;;;;;;12.10;3.90;;;;;;;2.89;58.35;100711.34;125762;1102;104268;-80
2022/02/08 15:50:53;;;;;;;11.83;3.50;;;;;;;2.91;58.83;100712.33;124946;1102;102971;-80
2022/02/08 15:53:37;;;;;;;12.30;3.70;;;;;;;2.93;58.86;100720.22;125026;1102;104166;-80
2022/02/08 15:56:37;;;;;;;12.07;4.15;;;;;;;2.93;59.32;100726.32;124907;1102;104232;-80
2022/02/08 16:07:41;;;;;;;10.57;3.47;;;;;;;2.96;59.04;100741.17;124862;1102;102240;-79
2022/02/08 16:10:21;;;;;;;12.40;4.40;;;;;;;2.97;59.46;100735.20;124947;1102;104191;-80
2022/02/08 16:13:12;;;;;;;17.30;4.47;;;;;;;2.92;59.76;100736.58;124915;1102;104181;-80
2022/02/08 16:16:05;;;;;;;10.93;3.97;;;;;;;2.87;59.34;100736.26;124969;1102;104230;-80
2022/02/08 16:18:46;;;;;;;16.75;4.50;;;;;;;2.82;60.03;100738.53;124970;1102;104181;-79
2022/02/08 16:24:28;;;;;;;12.00;4.30;;;;;;;2.74;60.30;100744.84;124898;1102;104318;-80
2022/02/08 16:27:17;;;;;;;16.83;4.43;;;;;;;2.69;60.25;100746.22;124940;1102;104188;-80